Menu Close Menu
Station Historical Data
Daily Summary for August 21, 2017 Units:  English    Metric   Both
« Previous Day
Next Day »
Daily Weekly Monthly Yearly Custom
  High: Low: Average:
Temperature: 93.5 °F 70.7 °F 79.9 °F
Dew Point: 74.0 °F 67.3 °F 70.2 °F
Humidity: 92% 46% 74%
Wind Speed: 1.0mph 0.0mph 0mph
Wind Gust: 2.0mph - -
Wind- - SE
Pressure: 30.19 in 30.10 in -
Precipitation: 0.00 in    
Historical Graphs
 
 
Tabular Data for August 21, 2017
Time Temperature Dew Point Pressure Wind Wind Speed Wind Gust Humidity Rainfall Rate (Hourly) solar Conditions
00:00 75.4 °F 69.5 °F 30.12 in Calm     82% 0.00 in WeatherDisplay:10.37 W/m2 CLR
00:05 75.3 °F 69.4 °F 30.12 in Calm     82% 0.00 in WeatherDisplay:10.37 W/m2 CLR
00:10 75.2 °F 69.3 °F 30.12 in Calm     82% 0.00 in WeatherDisplay:10.37 W/m2 CLR
00:15 75.3 °F 69.8 °F 30.12 in Calm     83% 0.00 in WeatherDisplay:10.37 W/m2 CLR
00:20 75.1 °F 69.6 °F 30.12 in Calm     83% 0.00 in WeatherDisplay:10.37 W/m2 CLR
00:25 75.0 °F 69.5 °F 30.12 in Calm     83% 0.00 in WeatherDisplay:10.37 W/m2 CLR
00:30 74.9 °F 69.4 °F 30.12 in Calm     83% 0.00 in WeatherDisplay:10.37 W/m2 CLR
00:40 74.8 °F 69.6 °F 30.13 in Calm     84% 0.00 in WeatherDisplay:10.37 W/m2 CLR
00:45 74.7 °F 69.5 °F 30.13 in Calm     84% 0.00 in WeatherDisplay:10.37 W/m2 CLR
00:50 74.6 °F 69.4 °F 30.13 in Calm     84% 0.00 in WeatherDisplay:10.37 W/m2 CLR
00:55 74.5 °F 69.3 °F 30.13 in Calm     84% 0.00 in WeatherDisplay:10.37 W/m2 CLR
01:00 74.4 °F 69.2 °F 30.13 in Calm     84% 0.00 in WeatherDisplay:10.37 W/m2 CLR
01:05 74.3 °F 69.5 °F 30.13 in Calm     85% 0.00 in WeatherDisplay:10.37 W/m2 CLR
01:10 74.3 °F 69.5 °F 30.13 in Calm     85% 0.00 in WeatherDisplay:10.37 W/m2 CLR
01:15 74.2 °F 69.4 °F 30.13 in Calm     85% 0.00 in WeatherDisplay:10.37 W/m2 CLR
01:20 74.1 °F 69.3 °F 30.13 in Calm     85% 0.00 in WeatherDisplay:10.37 W/m2 CLR
01:25 74.0 °F 69.2 °F 30.13 in Calm     85% 0.00 in WeatherDisplay:10.37 W/m2 CLR
01:30 73.8 °F 69.0 °F 30.13 in Calm     85% 0.00 in WeatherDisplay:10.37 W/m2 CLR
01:35 73.7 °F 69.2 °F 30.13 in Calm     86% 0.00 in WeatherDisplay:10.37 W/m2 CLR
01:40 73.6 °F 69.2 °F 30.13 in Calm     86% 0.00 in WeatherDisplay:10.37 W/m2 CLR
01:45 73.6 °F 69.2 °F 30.13 in Calm     86% 0.00 in WeatherDisplay:10.37 W/m2 CLR
01:50 73.5 °F 69.1 °F 30.13 in Calm     86% 0.00 in WeatherDisplay:10.37 W/m2 CLR
01:55 73.6 °F 69.2 °F 30.13 in Calm     86% 0.00 in WeatherDisplay:10.37 W/m2 CLR
02:00 73.7 °F 69.2 °F 30.13 in Calm     86% 0.00 in WeatherDisplay:10.37 W/m2 CLR
02:10 73.3 °F 68.8 °F 30.13 in Calm     86% 0.00 in WeatherDisplay:10.37 W/m2 CLR
02:15 73.2 °F 69.1 °F 30.13 in Calm     87% 0.00 in WeatherDisplay:10.37 W/m2 CLR
02:20 73.1 °F 69.0 °F 30.13 in Calm     87% 0.00 in WeatherDisplay:10.37 W/m2 CLR
02:25 73.1 °F 69.0 °F 30.14 in Calm     87% 0.00 in WeatherDisplay:10.37 W/m2 CLR
02:30 73.0 °F 68.9 °F 30.14 in Calm     87% 0.00 in WeatherDisplay:10.37 W/m2 CLR
02:35 72.9 °F 68.8 °F 30.14 in Calm     87% 0.00 in WeatherDisplay:10.37 W/m2 CLR
02:40 72.8 °F 68.7 °F 30.14 in Calm     87% 0.00 in WeatherDisplay:10.37 W/m2 CLR
02:45 72.8 °F 69.0 °F 30.14 in Calm     88% 0.00 in WeatherDisplay:10.37 W/m2 CLR
02:50 72.8 °F 69.0 °F 30.13 in Calm     88% 0.00 in WeatherDisplay:10.37 W/m2 CLR
02:55 72.9 °F 69.1 °F 30.14 in Calm     88% 0.00 in WeatherDisplay:10.37 W/m2 CLR
03:00 72.9 °F 69.1 °F 30.13 in Calm     88% 0.00 in WeatherDisplay:10.37 W/m2 CLR
03:05 72.8 °F 69.0 °F 30.13 in Calm     88% 0.00 in WeatherDisplay:10.37 W/m2 CLR
03:10 72.6 °F 68.8 °F 30.13 in Calm     88% 0.00 in WeatherDisplay:10.37 W/m2 CLR
03:15 72.5 °F 68.7 °F 30.13 in Calm     88% 0.00 in WeatherDisplay:10.37 W/m2 CLR
03:20 72.4 °F 68.7 °F 30.13 in Calm     88% 0.00 in WeatherDisplay:10.37 W/m2 CLR
03:25 72.4 °F 69.0 °F 30.13 in Calm     89% 0.00 in WeatherDisplay:10.37 W/m2 CLR
03:30 72.3 °F 68.5 °F 30.13 in Calm     88% 0.00 in WeatherDisplay:10.37 W/m2 CLR
03:35 72.2 °F 68.8 °F 30.13 in Calm     89% 0.00 in WeatherDisplay:10.37 W/m2 CLR
03:40 72.1 °F 68.7 °F 30.13 in Calm     89% 0.00 in WeatherDisplay:10.37 W/m2 CLR
03:45 72.0 °F 68.6 °F 30.13 in Calm     89% 0.00 in WeatherDisplay:10.37 W/m2 CLR
03:50 72.0 °F 68.6 °F 30.13 in Calm     89% 0.00 in WeatherDisplay:10.37 W/m2 CLR
03:55 71.9 °F 68.5 °F 30.13 in Calm     89% 0.00 in WeatherDisplay:10.37 W/m2 CLR
04:00 71.8 °F 68.4 °F 30.13 in Calm     89% 0.00 in WeatherDisplay:10.37 W/m2 CLR
04:05 71.8 °F 68.7 °F 30.13 in Calm     90% 0.00 in WeatherDisplay:10.37 W/m2 CLR
04:10 71.8 °F 68.7 °F 30.13 in Calm     90% 0.00 in WeatherDisplay:10.37 W/m2 CLR
04:15 71.7 °F 68.6 °F 30.13 in Calm     90% 0.00 in WeatherDisplay:10.37 W/m2 CLR
04:20 71.7 °F 68.6 °F 30.13 in Calm     90% 0.00 in WeatherDisplay:10.37 W/m2 CLR
04:25 71.6 °F 68.5 °F 30.13 in Calm     90% 0.00 in WeatherDisplay:10.37 W/m2 CLR
04:30 71.6 °F 68.5 °F 30.13 in Calm     90% 0.00 in WeatherDisplay:10.37 W/m2 CLR
04:40 71.6 °F 68.5 °F 30.13 in Calm     90% 0.00 in WeatherDisplay:10.37 W/m2 CLR
04:45 71.6 °F 68.5 °F 30.13 in Calm     90% 0.00 in WeatherDisplay:10.37 W/m2 CLR
04:50 71.6 °F 68.5 °F 30.13 in Calm     90% 0.00 in WeatherDisplay:10.37 W/m2 CLR
04:55 71.6 °F 68.5 °F 30.14 in Calm     90% 0.00 in WeatherDisplay:10.37 W/m2 CLR
05:00 71.7 °F 68.6 °F 30.14 in Calm     90% 0.00 in WeatherDisplay:10.37 W/m2 CLR
05:05 71.8 °F 68.7 °F 30.14 in Calm     90% 0.00 in WeatherDisplay:10.37 W/m2 CLR
05:10 71.8 °F 68.7 °F 30.15 in Calm     90% 0.00 in WeatherDisplay:10.37 W/m2 CLR
05:15 71.8 °F 68.7 °F 30.15 in Calm     90% 0.00 in WeatherDisplay:10.37 W/m2 CLR
05:20 71.9 °F 68.8 °F 30.15 in Calm     90% 0.00 in WeatherDisplay:10.37 W/m2 CLR
05:25 71.9 °F 68.8 °F 30.15 in Calm     90% 0.00 in WeatherDisplay:10.37 W/m2 CLR
05:30 71.9 °F 68.8 °F 30.15 in Calm     90% 0.00 in WeatherDisplay:10.37 W/m2 CLR
05:35 71.9 °F 68.8 °F 30.15 in Calm     90% 0.00 in WeatherDisplay:10.37 W/m2 CLR
05:40 71.9 °F 68.8 °F 30.15 in Calm     90% 0.00 in WeatherDisplay:10.37 W/m2 CLR
05:45 71.9 °F 68.5 °F 30.15 in Calm     89% 0.00 in WeatherDisplay:10.37 W/m2 CLR
05:50 71.8 °F 68.7 °F 30.15 in Calm     90% 0.00 in WeatherDisplay:10.37 W/m2 CLR
05:55 71.6 °F 68.2 °F 30.15 in Calm     89% 0.00 in WeatherDisplay:10.37 W/m2 CLR
06:00 71.6 °F 68.5 °F 30.15 in Calm     90% 0.00 in WeatherDisplay:10.37 W/m2 CLR
06:05 71.4 °F 68.3 °F 30.15 in Calm     90% 0.00 in WeatherDisplay:10.37 W/m2 CLR
06:10 71.4 °F 68.3 °F 30.15 in Calm     90% 0.00 in WeatherDisplay:10.37 W/m2 CLR
06:15 71.4 °F 68.3 °F 30.15 in Calm     90% 0.00 in WeatherDisplay:10.37 W/m2 CLR
06:20 71.2 °F 68.2 °F 30.15 in Calm     90% 0.00 in WeatherDisplay:10.37 W/m2 CLR
06:25 71.1 °F 68.0 °F 30.15 in Calm     90% 0.00 in WeatherDisplay:10.37 W/m2 CLR
06:30 71.0 °F 67.9 °F 30.15 in Calm     90% 0.00 in WeatherDisplay:10.37 W/m2 CLR
06:40 70.9 °F 67.8 °F 30.15 in Calm     90% 0.00 in WeatherDisplay:10.37 W/m2 CLR
06:45 70.8 °F 68.0 °F 30.15 in Calm     91% 0.00 in WeatherDisplay:10.37 W/m2 CLR
06:50 70.8 °F 68.0 °F 30.15 in Calm     91% 0.00 in WeatherDisplay:10.37 W/m2 CLR
06:55 70.8 °F 68.0 °F 30.16 in Calm     91% 0.00 in WeatherDisplay:10.37 W/m2 CLR
07:00 70.8 °F 68.0 °F 30.16 in Calm     91% 0.00 in WeatherDisplay:10.37 W/m2 CLR
07:05 70.8 °F 68.0 °F 30.16 in Calm     91% 0.00 in WeatherDisplay:10.37 W/m2 CLR
07:10 70.7 °F 67.9 °F 30.16 in Calm     91% 0.00 in WeatherDisplay:10.37 W/m2 CLR
07:15 70.7 °F 67.9 °F 30.16 in Calm     91% 0.00 in WeatherDisplay:10.37 W/m2 CLR
07:20 70.9 °F 68.4 °F 30.16 in Calm     92% 0.00 in WeatherDisplay:10.37 W/m2 SCT
07:25 70.8 °F 68.0 °F 30.16 in Calm     91% 0.00 in WeatherDisplay:10.37 W/m2 SCT
07:30 70.8 °F 68.0 °F 30.17 in Calm     91% 0.00 in WeatherDisplay:10.37 W/m2 SCT
07:40 70.8 °F 68.0 °F 30.17 in Calm     91% 0.00 in WeatherDisplay:10.37 W/m2 SCT
07:45 70.9 °F 68.4 °F 30.17 in Calm     92% 0.00 in WeatherDisplay:10.37 W/m2 SCT
07:50 71.0 °F 68.6 °F 30.17 in Calm     92% 0.00 in WeatherDisplay:10.37 W/m2 SCT
07:55 71.1 °F 68.7 °F 30.17 in Calm     92% 0.00 in WeatherDisplay:10.37 W/m2 SCT
08:00 71.2 °F 68.8 °F 30.17 in Calm     92% 0.00 in WeatherDisplay:10.37 W/m2 SCT
08:10 71.6 °F 69.2 °F 30.17 in Calm     92% 0.00 in WeatherDisplay:10.37 W/m2 SCT
08:15 72.0 °F 69.5 °F 30.17 in Calm     92% 0.00 in WeatherDisplay:10.37 W/m2 SCT
08:20 72.4 °F 69.9 °F 30.17 in Calm     92% 0.00 in WeatherDisplay:10.37 W/m2 SCT
08:25 72.7 °F 69.9 °F 30.17 in Calm     91% 0.00 in WeatherDisplay:10.37 W/m2 SCT
08:30 73.2 °F 70.1 °F 30.17 in Calm     90% 0.00 in WeatherDisplay:10.37 W/m2 SCT
08:35 73.6 °F 70.5 °F 30.17 in Calm     90% 0.00 in WeatherDisplay:10.37 W/m2 SCT
08:40 74.0 °F 70.6 °F 30.17 in Calm     89% 0.00 in WeatherDisplay:10.37 W/m2 SCT
08:45 74.6 °F 70.8 °F 30.17 in Calm     88% 0.00 in WeatherDisplay:10.37 W/m2 SCT
08:50 75.0 °F 70.9 °F 30.17 in Calm     87% 0.00 in WeatherDisplay:10.37 W/m2 SCT
08:55 75.4 °F 71.3 °F 30.18 in Calm     87% 0.00 in WeatherDisplay:10.37 W/m2 SCT
09:00 75.9 °F 71.4 °F 30.18 in Calm     86% 0.00 in WeatherDisplay:10.37 W/m2 SCT
09:05 76.4 °F 71.6 °F 30.18 in Calm     85% 0.00 in WeatherDisplay:10.37 W/m2 SCT
09:10 77.0 °F 71.8 °F 30.18 in Calm     84% 0.00 in WeatherDisplay:10.37 W/m2 SCT
09:15 77.5 °F 71.9 °F 30.18 in Calm     83% 0.00 in WeatherDisplay:10.37 W/m2 SCT
09:20 78.1 °F 72.2 °F 30.18 in Calm     82% 0.00 in WeatherDisplay:10.37 W/m2 SCT
09:25 78.8 °F 72.5 °F 30.18 in Calm     81% 0.00 in WeatherDisplay:10.37 W/m2 SCT
09:30 79.1 °F 72.4 °F 30.18 in Calm     80% 0.00 in WeatherDisplay:10.37 W/m2 SCT
09:35 79.4 °F 72.7 °F 30.18 in Calm     80% 0.00 in WeatherDisplay:10.37 W/m2 SCT
09:40 79.7 °F 72.6 °F 30.18 in Calm     79% 0.00 in WeatherDisplay:10.37 W/m2 SCT
09:45 80.1 °F 73.0 °F 30.18 in Calm     79% 0.00 in WeatherDisplay:10.37 W/m2 SCT
09:50 80.4 °F 72.9 °F 30.18 in Calm     78% 0.00 in WeatherDisplay:10.37 W/m2 SCT
09:55 80.9 °F 73.4 °F 30.18 in Calm     78% 0.00 in WeatherDisplay:10.37 W/m2 SCT
10:00 81.6 °F 73.3 °F 30.18 in Calm     76% 0.00 in WeatherDisplay:10.37 W/m2 SCT
10:05 82.3 °F 74.0 °F 30.18 in Calm     76% 0.00 in WeatherDisplay:10.37 W/m2 SCT
10:10 82.5 °F 73.4 °F 30.18 in Calm     74% 0.00 in WeatherDisplay:10.37 W/m2 SCT
10:15 82.8 °F 72.9 °F 30.18 in Calm   1.0 mph 72% 0.00 in WeatherDisplay:10.37 W/m2 SCT
10:20 83.2 °F 73.2 °F 30.18 in Calm   1.0 mph 72% 0.00 in WeatherDisplay:10.37 W/m2 SCT
10:25 83.5 °F 73.1 °F 30.18 in Calm   1.0 mph 71% 0.00 in WeatherDisplay:10.37 W/m2 SCT
10:30 83.8 °F 73.4 °F 30.19 in Calm   1.0 mph 71% 0.00 in WeatherDisplay:10.37 W/m2 SCT
10:40 84.3 °F 73.5 °F 30.19 in Calm     70% 0.00 in WeatherDisplay:10.37 W/m2 SCT
10:45 84.4 °F 73.1 °F 30.19 in Calm   1.0 mph 69% 0.00 in WeatherDisplay:10.37 W/m2 SCT
10:50 84.3 °F 71.7 °F 30.19 in Calm   1.0 mph 66% 0.00 in WeatherDisplay:10.37 W/m2 SCT
10:55 84.4 °F 72.2 °F 30.19 in Calm   1.0 mph 67% 0.00 in WeatherDisplay:10.37 W/m2 SCT
11:00 84.7 °F 73.0 °F 30.19 in Calm   2.0 mph 68% 0.00 in WeatherDisplay:10.37 W/m2 SCT
11:05 85.0 °F 72.8 °F 30.18 in Calm   1.0 mph 67% 0.00 in WeatherDisplay:10.37 W/m2 SCT
11:10 85.2 °F 72.1 °F 30.19 in Calm   2.0 mph 65% 0.00 in WeatherDisplay:10.37 W/m2 SCT
11:15 85.3 °F 72.2 °F 30.18 in Calm   2.0 mph 65% 0.00 in WeatherDisplay:10.37 W/m2 SCT
11:20 85.6 °F 72.0 °F 30.19 in Calm   1.0 mph 64% 0.00 in WeatherDisplay:10.37 W/m2 SCT
11:25 85.9 °F 71.4 °F 30.19 in Calm   1.0 mph 62% 0.00 in WeatherDisplay:10.37 W/m2 SCT
11:30 86.0 °F 71.5 °F 30.18 in Calm   2.0 mph 62% 0.00 in WeatherDisplay:10.37 W/m2 SCT
11:35 86.2 °F 70.7 °F 30.18 in Calm   1.0 mph 60% 0.00 in WeatherDisplay:10.37 W/m2 SCT
11:40 86.4 °F 70.9 °F 30.18 in Calm   1.0 mph 60% 0.00 in WeatherDisplay:10.37 W/m2 SCT
11:45 86.9 °F 71.9 °F 30.19 in Calm   1.0 mph 61% 0.00 in WeatherDisplay:10.37 W/m2 SCT
11:50 87.2 °F 70.1 °F 30.18 in Calm   1.0 mph 57% 0.00 in WeatherDisplay:10.37 W/m2 SCT
11:55 87.2 °F 70.6 °F 30.18 in Calm   1.0 mph 58% 0.00 in WeatherDisplay:10.37 W/m2 SCT
12:00 87.5 °F 71.4 °F 30.18 in Calm   2.0 mph 59% 0.00 in WeatherDisplay:10.37 W/m2 SCT
12:05 87.7 °F 69.5 °F 30.18 in Calm   1.0 mph 55% 0.00 in WeatherDisplay:10.37 W/m2 SCT
12:10 88.1 °F 69.9 °F 30.18 in Calm   1.0 mph 55% 0.00 in WeatherDisplay:10.37 W/m2 SCT
12:15 88.2 °F 71.0 °F 30.18 in Calm   2.0 mph 57% 0.00 in WeatherDisplay:10.37 W/m2 SCT
12:20 88.8 °F 70.6 °F 30.18 in Calm   2.0 mph 55% 0.00 in WeatherDisplay:10.37 W/m2 BKN
12:25 89.5 °F 69.5 °F 30.18 in Calm   2.0 mph 52% 0.00 in WeatherDisplay:10.37 W/m2 BKN
12:30 89.9 °F 70.5 °F 30.18 in WSW 1.0 mph 2.0 mph 53% 0.00 in WeatherDisplay:10.37 W/m2 BKN
12:35 90.5 °F 68.7 °F 30.18 in Calm   1.0 mph 49% 0.00 in WeatherDisplay:10.37 W/m2 BKN
12:40 90.9 °F 67.3 °F 30.18 in Calm   1.0 mph 46% 0.00 in WeatherDisplay:10.37 W/m2 BKN
12:45 91.0 °F 69.2 °F 30.18 in North 1.0 mph 1.0 mph 49% 0.00 in WeatherDisplay:10.37 W/m2 BKN
12:50 91.9 °F 70.0 °F 30.18 in Calm   1.0 mph 49% 0.00 in WeatherDisplay:10.37 W/m2 BKN
12:55 92.9 °F 71.5 °F 30.17 in Calm   1.0 mph 50% 0.00 in WeatherDisplay:10.37 W/m2 BKN
13:00 93.5 °F 69.6 °F 30.17 in Calm   1.0 mph 46% 0.00 in WeatherDisplay:10.37 W/m2 BKN
13:10 92.8 °F 70.2 °F 30.17 in Calm   1.0 mph 48% 0.00 in WeatherDisplay:10.37 W/m2 BKN
13:15 92.9 °F 69.7 °F 30.17 in Calm   1.0 mph 47% 0.00 in WeatherDisplay:10.37 W/m2 BKN
13:20 92.9 °F 70.3 °F 30.17 in Calm   1.0 mph 48% 0.00 in WeatherDisplay:10.37 W/m2 SCT
13:25 92.8 °F 69.0 °F 30.17 in Calm   1.0 mph 46% 0.00 in WeatherDisplay:10.37 W/m2 SCT
13:30 92.8 °F 69.6 °F 30.17 in Calm   1.0 mph 47% 0.00 in WeatherDisplay:10.37 W/m2 SCT
13:35 92.4 °F 69.8 °F 30.17 in Calm   1.0 mph 48% 0.00 in WeatherDisplay:10.37 W/m2 SCT
13:40 91.9 °F 70.6 °F 30.17 in Calm   1.0 mph 50% 0.00 in WeatherDisplay:10.37 W/m2 SCT
13:45 91.8 °F 71.7 °F 30.16 in Calm   1.0 mph 52% 0.00 in WeatherDisplay:10.37 W/m2 SCT
13:50 91.5 °F 69.6 °F 30.16 in Calm   2.0 mph 49% 0.00 in WeatherDisplay:10.37 W/m2 SCT
13:55 91.1 °F 71.0 °F 30.16 in Calm   1.0 mph 52% 0.00 in WeatherDisplay:10.37 W/m2 SCT
14:00 91.2 °F 69.4 °F 30.16 in Calm     49% 0.00 in WeatherDisplay:10.37 W/m2 SCT
14:05 91.3 °F 69.5 °F 30.16 in Calm   1.0 mph 49% 0.00 in WeatherDisplay:10.37 W/m2 SCT
14:10 91.1 °F 68.6 °F 30.15 in Calm     48% 0.00 in WeatherDisplay:10.37 W/m2 SCT
14:15 90.9 °F 69.7 °F 30.15 in Calm   1.0 mph 50% 0.00 in WeatherDisplay:10.37 W/m2 SCT
14:20 90.4 °F 69.8 °F 30.15 in Calm     51% 0.00 in WeatherDisplay:10.37 W/m2 SCT
14:25 90.0 °F 69.4 °F 30.15 in Calm     51% 0.00 in WeatherDisplay:10.37 W/m2 SCT
14:30 89.5 °F 70.1 °F 30.14 in Calm     53% 0.00 in WeatherDisplay:10.37 W/m2 SCT
14:40 86.3 °F 70.3 °F 30.14 in Calm     59% 0.00 in WeatherDisplay:10.37 W/m2 SCT
14:45 85.1 °F 70.1 °F 30.14 in Calm     61% 0.00 in WeatherDisplay:10.37 W/m2 SCT
14:50 84.5 °F 70.5 °F 30.14 in Calm     63% 0.00 in WeatherDisplay:10.37 W/m2 SCT
14:55 84.0 °F 71.0 °F 30.14 in Calm     65% 0.00 in WeatherDisplay:10.37 W/m2 SCT
15:00 83.8 °F 70.8 °F 30.13 in Calm     65% 0.00 in WeatherDisplay:10.37 W/m2 SCT
15:10 83.9 °F 71.3 °F 30.13 in Calm     66% 0.00 in WeatherDisplay:10.37 W/m2 SCT
15:15 84.2 °F 72.0 °F 30.13 in Calm     67% 0.00 in WeatherDisplay:10.37 W/m2 SCT
15:20 84.6 °F 72.4 °F 30.12 in Calm     67% 0.00 in WeatherDisplay:10.37 W/m2 SCT
15:25 85.1 °F 72.0 °F 30.12 in Calm     65% 0.00 in WeatherDisplay:10.37 W/m2 SCT
15:35 86.0 °F 71.5 °F 30.12 in Calm   1.0 mph 62% 0.00 in WeatherDisplay:10.37 W/m2 FEW
15:40 86.5 °F 71.9 °F 30.12 in Calm   1.0 mph 62% 0.00 in WeatherDisplay:10.37 W/m2 FEW
15:45 86.9 °F 71.3 °F 30.12 in Calm     60% 0.00 in WeatherDisplay:10.37 W/m2 FEW
15:50 87.4 °F 71.8 °F 30.12 in Calm     60% 0.00 in WeatherDisplay:10.37 W/m2 FEW
15:55 87.7 °F 70.6 °F 30.12 in Calm   1.0 mph 57% 0.00 in WeatherDisplay:10.37 W/m2 FEW
16:00 88.2 °F 71.5 °F 30.12 in Calm   1.0 mph 58% 0.00 in WeatherDisplay:10.37 W/m2 FEW
16:05 88.2 °F 71.0 °F 30.12 in Calm   1.0 mph 57% 0.00 in WeatherDisplay:10.37 W/m2 FEW
16:10 87.9 °F 70.7 °F 30.12 in Calm   1.0 mph 57% 0.00 in WeatherDisplay:10.37 W/m2 FEW
16:15 87.6 °F 70.5 °F 30.12 in Calm   1.0 mph 57% 0.00 in WeatherDisplay:10.37 W/m2 FEW
16:20 87.7 °F 71.1 °F 30.12 in Calm   1.0 mph 58% 0.00 in WeatherDisplay:10.37 W/m2 FEW
16:25 87.9 °F 71.3 °F 30.11 in Calm   1.0 mph 58% 0.00 in WeatherDisplay:10.37 W/m2 FEW
16:45 88.4 °F 70.7 °F 30.11 in Calm     56% 0.00 in WeatherDisplay:10.37 W/m2 FEW
17:05 88.0 °F 69.8 °F 30.11 in Calm   1.0 mph 55% 0.00 in WeatherDisplay:10.37 W/m2 FEW
17:15 87.7 °F 70.6 °F 30.11 in Calm     57% 0.00 in WeatherDisplay:10.37 W/m2 FEW
17:20 88.1 °F 72.0 °F 30.11 in Calm   1.0 mph 59% 0.00 in WeatherDisplay:10.37 W/m2 FEW
17:25 88.6 °F 71.4 °F 30.10 in Calm   1.0 mph 57% 0.00 in WeatherDisplay:10.37 W/m2 FEW
17:30 88.8 °F 71.1 °F 30.11 in Calm   1.0 mph 56% 0.00 in WeatherDisplay:10.37 W/m2 FEW
17:35 89.1 °F 70.3 °F 30.11 in Calm   1.0 mph 54% 0.00 in WeatherDisplay:10.37 W/m2 FEW
17:40 89.5 °F 70.7 °F 30.11 in Calm   1.0 mph 54% 0.00 in WeatherDisplay:10.37 W/m2 FEW
17:45 89.9 °F 72.1 °F 30.11 in Calm     56% 0.00 in WeatherDisplay:10.37 W/m2 FEW
17:50 89.5 °F 70.6 °F 30.11 in Calm   1.0 mph 54% 0.00 in WeatherDisplay:10.37 W/m2 FEW
17:55 89.0 °F 69.6 °F 30.11 in Calm   1.0 mph 53% 0.00 in WeatherDisplay:10.37 W/m2 FEW
18:00 88.8 °F 70.5 °F 30.11 in Calm   1.0 mph 55% 0.00 in WeatherDisplay:10.37 W/m2 FEW
18:05 88.5 °F 70.8 °F 30.11 in Calm   2.0 mph 56% 0.00 in WeatherDisplay:10.37 W/m2 FEW
18:10 88.1 °F 70.9 °F 30.11 in Calm   1.0 mph 57% 0.00 in WeatherDisplay:10.37 W/m2 FEW
18:15 87.9 °F 70.2 °F 30.11 in Calm     56% 0.00 in WeatherDisplay:10.37 W/m2 FEW
18:20 87.7 °F 70.6 °F 30.11 in Calm   1.0 mph 57% 0.00 in WeatherDisplay:10.37 W/m2 FEW
18:25 87.6 °F 70.5 °F 30.11 in Calm     57% 0.00 in WeatherDisplay:10.37 W/m2 FEW
18:30 87.4 °F 71.3 °F 30.11 in Calm     59% 0.00 in WeatherDisplay:10.37 W/m2 FEW
18:35 87.1 °F 71.0 °F 30.11 in Calm   1.0 mph 59% 0.00 in WeatherDisplay:10.37 W/m2 FEW
18:40 86.9 °F 70.8 °F 30.11 in Calm   1.0 mph 59% 0.00 in WeatherDisplay:10.37 W/m2 FEW
18:45 86.8 °F 70.8 °F 30.11 in Calm   1.0 mph 59% 0.00 in WeatherDisplay:10.37 W/m2 FEW
18:50 86.6 °F 70.6 °F 30.11 in Calm     59% 0.00 in WeatherDisplay:10.37 W/m2 FEW
18:55 86.5 °F 71.5 °F 30.11 in Calm     61% 0.00 in WeatherDisplay:10.37 W/m2 FEW
19:00 86.4 °F 71.3 °F 30.11 in Calm     61% 0.00 in WeatherDisplay:10.37 W/m2 FEW
19:10 85.9 °F 70.4 °F 30.11 in Calm   1.0 mph 60% 0.00 in WeatherDisplay:10.37 W/m2 FEW
19:15 85.8 °F 70.8 °F 30.11 in Calm     61% 0.00 in WeatherDisplay:10.37 W/m2 FEW
19:20 85.5 °F 71.5 °F 30.11 in Calm     63% 0.00 in WeatherDisplay:10.37 W/m2 FEW
19:25 85.2 °F 71.2 °F 30.11 in Calm     63% 0.00 in WeatherDisplay:10.37 W/m2 FEW
19:30 84.9 °F 70.9 °F 30.11 in Calm     63% 0.00 in WeatherDisplay:10.37 W/m2 FEW
19:35 84.6 °F 71.1 °F 30.11 in Calm     64% 0.00 in WeatherDisplay:10.37 W/m2 FEW
19:40 84.4 °F 71.3 °F 30.11 in Calm     65% 0.00 in WeatherDisplay:10.37 W/m2 FEW
19:45 84.0 °F 71.4 °F 30.11 in Calm     66% 0.00 in WeatherDisplay:10.37 W/m2 FEW
19:50 83.7 °F 71.1 °F 30.11 in Calm     66% 0.00 in WeatherDisplay:10.37 W/m2 FEW
19:55 83.3 °F 71.2 °F 30.11 in Calm     67% 0.00 in WeatherDisplay:10.37 W/m2 FEW
20:00 83.0 °F 70.9 °F 30.11 in Calm     67% 0.00 in WeatherDisplay:10.37 W/m2 FEW
20:05 82.8 °F 70.7 °F 30.11 in Calm     67% 0.00 in WeatherDisplay:10.37 W/m2 FEW
20:10 82.5 °F 70.9 °F 30.11 in Calm     68% 0.00 in WeatherDisplay:10.37 W/m2 FEW
20:15 82.2 °F 70.6 °F 30.11 in Calm     68% 0.00 in WeatherDisplay:10.37 W/m2 FEW
20:20 82.0 °F 70.8 °F 30.12 in Calm     69% 0.00 in WeatherDisplay:10.37 W/m2 FEW
20:30 81.6 °F 70.4 °F 30.12 in Calm     69% 0.00 in WeatherDisplay:10.37 W/m2 FEW
20:35 81.5 °F 70.7 °F 30.12 in Calm     70% 0.00 in WeatherDisplay:10.37 W/m2 FEW
20:40 81.3 °F 71.0 °F 30.12 in Calm     71% 0.00 in WeatherDisplay:10.37 W/m2 FEW
20:45 81.1 °F 70.8 °F 30.12 in Calm     71% 0.00 in WeatherDisplay:10.37 W/m2 FEW
20:50 81.0 °F 70.7 °F 30.12 in Calm     71% 0.00 in WeatherDisplay:10.37 W/m2 FEW
20:55 80.8 °F 70.5 °F 30.13 in Calm     71% 0.00 in WeatherDisplay:10.37 W/m2 FEW
21:00 80.6 °F 71.1 °F 30.13 in Calm     73% 0.00 in WeatherDisplay:10.37 W/m2 FEW
21:05 80.4 °F 70.9 °F 30.13 in Calm     73% 0.00 in WeatherDisplay:10.37 W/m2 FEW
21:10 80.2 °F 70.7 °F 30.13 in Calm     73% 0.00 in WeatherDisplay:10.37 W/m2 FEW
21:15 79.9 °F 70.9 °F 30.13 in Calm     74% 0.00 in WeatherDisplay:10.37 W/m2 FEW
21:20 79.7 °F 70.7 °F 30.13 in Calm     74% 0.00 in WeatherDisplay:10.37 W/m2 FEW
21:25 79.5 °F 70.9 °F 30.13 in Calm     75% 0.00 in WeatherDisplay:10.37 W/m2 FEW
21:30 79.3 °F 70.7 °F 30.14 in Calm     75% 0.00 in WeatherDisplay:10.37 W/m2 FEW
21:35 79.2 °F 70.6 °F 30.14 in Calm     75% 0.00 in WeatherDisplay:10.37 W/m2 FEW
21:40 79.0 °F 70.8 °F 30.14 in Calm     76% 0.00 in WeatherDisplay:10.37 W/m2 FEW
21:45 78.8 °F 71.0 °F 30.14 in Calm     77% 0.00 in WeatherDisplay:10.37 W/m2 FEW
21:50 78.7 °F 70.9 °F 30.14 in Calm     77% 0.00 in WeatherDisplay:10.37 W/m2 FEW
21:55 78.6 °F 70.8 °F 30.14 in Calm     77% 0.00 in WeatherDisplay:10.37 W/m2 FEW
22:00 78.5 °F 70.7 °F 30.15 in Calm     77% 0.00 in WeatherDisplay:10.37 W/m2 FEW
22:05 78.3 °F 70.9 °F 30.15 in Calm     78% 0.00 in WeatherDisplay:10.37 W/m2 FEW
22:10 78.2 °F 70.8 °F 30.15 in Calm     78% 0.00 in WeatherDisplay:10.37 W/m2 FEW
22:20 77.8 °F 70.7 °F 30.15 in Calm     79% 0.00 in WeatherDisplay:10.37 W/m2 FEW
22:25 77.6 °F 70.6 °F 30.15 in Calm     79% 0.00 in WeatherDisplay:10.37 W/m2 FEW
22:30 77.5 °F 70.8 °F 30.15 in Calm     80% 0.00 in WeatherDisplay:10.37 W/m2 FEW
22:35 77.4 °F 70.7 °F 30.14 in Calm     80% 0.00 in WeatherDisplay:10.37 W/m2 FEW
22:40 77.2 °F 70.5 °F 30.15 in Calm     80% 0.00 in WeatherDisplay:10.37 W/m2 FEW
22:45 77.1 °F 70.8 °F 30.15 in Calm     81% 0.00 in WeatherDisplay:10.37 W/m2 FEW
22:50 76.9 °F 70.6 °F 30.15 in Calm     81% 0.00 in WeatherDisplay:10.37 W/m2 FEW
22:55 76.8 °F 70.5 °F 30.15 in Calm     81% 0.00 in WeatherDisplay:10.37 W/m2 FEW
23:00 76.7 °F 70.8 °F 30.15 in Calm     82% 0.00 in WeatherDisplay:10.37 W/m2 FEW
23:05 76.6 °F 70.7 °F 30.15 in Calm     82% 0.00 in WeatherDisplay:10.37 W/m2 FEW
23:10 76.4 °F 70.5 °F 30.15 in Calm     82% 0.00 in WeatherDisplay:10.37 W/m2 FEW
23:20 76.2 °F 70.7 °F 30.15 in Calm     83% 0.00 in WeatherDisplay:10.37 W/m2 CLR
23:30 76.1 °F 70.5 °F 30.15 in Calm     83% 0.00 in WeatherDisplay:10.37 W/m2 CLR
23:35 75.9 °F 70.4 °F 30.15 in Calm     83% 0.00 in WeatherDisplay:10.37 W/m2 CLR
23:40 75.8 °F 70.6 °F 30.15 in Calm     84% 0.00 in WeatherDisplay:10.37 W/m2 CLR
23:50 75.6 °F 70.8 °F 30.16 in Calm     85% 0.00 in WeatherDisplay:10.37 W/m2 CLR
23:55 75.5 °F 70.7 °F 30.16 in Calm     85% 0.00 in WeatherDisplay:10.37 W/m2 CLR
Piedmont Bend
Compliments of Weather Underground - 4 mb